Time;durP1;ratioP1;P1;durP2;ratioP2;P2;SDS_P1;SDS_P2;PMS_P1;PMS_P2;Temp;Humidity;BMP_temperature;BMP_pressure;BME280_temperature;BME280_humidity;BME280_pressure;Samples;Min_cycle;Max_cycle;Signal;HPM_P1;HPM_P2
2022/08/23 00:01:39;;;;;;;4.50;2.55;;;;;;;19.68;57.80;98341.75;4105027;28;20226;-62
2022/08/23 00:03:41;;;;;;;2.58;2.38;;;;;;;19.65;58.20;98344.34;4102219;28;20220;-60
2022/08/23 00:05:43;;;;;;;3.90;2.55;;;;;;;19.61;58.48;98346.09;4117698;28;20671;-61
2022/08/23 00:07:45;;;;;;;4.13;2.85;;;;;;;19.57;58.63;98345.09;4100042;28;20775;-62
2022/08/23 00:09:47;;;;;;;3.67;2.80;;;;;;;19.54;58.57;98345.69;4130735;28;20667;-62
2022/08/23 00:12:07;;;;;;;3.20;2.55;;;;;;;19.46;58.78;98349.22;4104269;28;20202;-61
2022/08/23 00:14:16;;;;;;;4.90;3.33;;;;;;;19.42;58.83;98337.06;4120453;28;20207;-60
2022/08/23 00:16:18;;;;;;;5.43;2.60;;;;;;;19.42;58.98;98342.63;4117650;28;20634;-61
2022/08/23 00:18:20;;;;;;;7.40;3.30;;;;;;;19.33;59.42;98339.78;4134016;28;20224;-62
2022/08/23 00:20:22;;;;;;;3.50;2.97;;;;;;;19.29;59.45;98340.69;4128518;28;20577;-62
2022/08/23 00:22:24;;;;;;;3.75;2.70;;;;;;;19.28;59.44;98348.22;4099335;28;20207;-62
2022/08/23 00:24:26;;;;;;;4.82;2.65;;;;;;;19.27;59.40;98346.56;4133370;28;20293;-63
2022/08/23 00:26:58;;;;;;;4.10;3.25;;;;;;;19.26;59.25;98341.31;4088268;28;20728;-62
2022/08/23 00:28:59;;;;;;;4.07;3.63;;;;;;;19.27;59.45;98348.50;4102892;28;20242;-63
2022/08/23 00:31:02;;;;;;;4.60;3.25;;;;;;;19.26;59.60;98349.66;4131675;28;20201;-63
2022/08/23 00:33:04;;;;;;;3.83;3.00;;;;;;;19.20;59.83;98345.34;4115687;28;20221;-61
2022/08/23 00:35:08;;;;;;;4.22;2.65;;;;;;;19.10;59.82;98339.94;4105038;28;20214;-62
2022/08/23 00:37:10;;;;;;;3.03;2.70;;;;;;;19.02;59.82;98343.44;4128536;28;20652;-64
2022/08/23 00:39:12;;;;;;;3.53;2.65;;;;;;;18.99;59.61;98338.53;4106249;28;20716;-62
2022/08/23 00:41:14;;;;;;;4.75;3.33;;;;;;;19.01;59.65;98336.25;4115152;28;20330;-62
2022/08/23 00:48:28;;;;;;;3.28;2.97;;;;;;;18.87;60.19;98349.31;4103616;28;20239;-62
2022/08/23 00:50:39;;;;;;;3.30;3.00;;;;;;;18.79;60.50;98355.56;4103490;28;20266;-65
2022/08/23 00:53:11;;;;;;;6.55;2.95;;;;;;;18.73;60.43;98352.06;4132176;28;20209;-64
2022/08/23 00:55:15;;;;;;;2.75;2.53;;;;;;;18.69;60.37;98358.53;4131289;28;20247;-62
2022/08/23 00:57:18;;;;;;;2.92;2.63;;;;;;;18.68;60.51;98354.13;4117317;28;20802;-62
2022/08/23 00:59:20;;;;;;;3.05;2.63;;;;;;;18.61;60.70;98365.63;4127138;28;20210;-64
2022/08/23 01:01:22;;;;;;;3.47;3.17;;;;;;;18.58;60.74;98363.44;4096490;28;20223;-60
2022/08/23 01:03:26;;;;;;;3.83;3.05;;;;;;;18.55;60.62;98357.69;4109601;28;20211;-62
2022/08/23 01:05:35;;;;;;;3.22;2.92;;;;;;;18.49;60.66;98364.44;4106527;28;20668;-61
2022/08/23 01:07:53;;;;;;;3.20;2.75;;;;;;;18.50;60.64;98368.84;4100221;28;20689;-61
2022/08/23 01:09:59;;;;;;;3.13;2.83;;;;;;;18.52;60.66;98361.09;4107179;28;20210;-64
2022/08/23 01:12:22;;;;;;;3.58;3.10;;;;;;;18.47;60.55;98355.63;4129292;28;20212;-63
2022/08/23 01:14:43;;;;;;;4.13;2.83;;;;;;;18.51;60.82;98359.44;4099240;28;20206;-61
2022/08/23 01:16:59;;;;;;;3.88;3.50;;;;;;;18.51;60.80;98353.91;4117247;28;20275;-60
2022/08/23 01:19:04;;;;;;;3.30;2.85;;;;;;;18.50;61.01;98358.59;4105008;28;20207;-62
2022/08/23 01:21:19;;;;;;;4.45;3.60;;;;;;;18.47;61.30;98355.63;4097878;28;20467;-63
2022/08/23 01:23:38;;;;;;;4.47;2.78;;;;;;;18.39;61.60;98356.31;4131866;28;20887;-61
2022/08/23 01:25:40;;;;;;;3.20;3.00;;;;;;;18.32;61.68;98356.69;4131247;28;20500;-60
2022/08/23 01:27:43;;;;;;;5.13;3.22;;;;;;;18.28;62.10;98361.19;4119924;28;20221;-59
2022/08/23 01:29:44;;;;;;;5.95;3.35;;;;;;;18.26;62.06;98363.44;4117422;28;20202;-63
2022/08/23 01:31:46;;;;;;;3.88;3.08;;;;;;;18.25;62.03;98363.75;4098729;28;20199;-61
2022/08/23 01:33:53;;;;;;;4.25;3.30;;;;;;;18.20;62.43;98366.59;4117724;28;20321;-61
2022/08/23 01:35:56;;;;;;;3.70;3.40;;;;;;;18.12;62.59;98368.09;4100500;28;20234;-62
2022/08/23 01:37:58;;;;;;;4.20;3.85;;;;;;;18.08;62.51;98371.78;4105769;28;20322;-62
2022/08/23 01:40:00;;;;;;;3.40;3.20;;;;;;;18.04;63.03;98370.75;4098449;28;20204;-61
2022/08/23 01:42:02;;;;;;;3.67;2.83;;;;;;;18.00;62.86;98370.53;4102651;28;20211;-61
2022/08/23 01:44:08;;;;;;;4.10;3.75;;;;;;;18.01;62.70;98374.13;4116982;28;20667;-61
2022/08/23 01:46:16;;;;;;;5.50;3.42;;;;;;;18.03;62.70;98377.41;4109338;28;20260;-62
2022/08/23 01:48:20;;;;;;;4.47;3.10;;;;;;;18.05;62.78;98366.84;4110922;28;20251;-62
2022/08/23 01:50:22;;;;;;;4.32;3.08;;;;;;;18.03;62.64;98369.91;4108014;28;20273;-64
2022/08/23 01:52:23;;;;;;;4.25;2.97;;;;;;;18.03;62.89;98374.63;4135190;28;20214;-61
2022/08/23 01:54:25;;;;;;;3.08;2.78;;;;;;;17.98;62.71;98374.72;4108498;28;20294;-61
2022/08/23 01:56:28;;;;;;;5.32;3.42;;;;;;;17.94;63.01;98376.44;4117090;28;20296;-62
2022/08/23 01:58:40;;;;;;;3.80;3.10;;;;;;;17.89;63.12;98380.13;4132298;28;20219;-62
2022/08/23 02:00:43;;;;;;;3.40;2.97;;;;;;;17.78;63.17;98380.56;4131460;28;20221;-60
2022/08/23 02:02:45;;;;;;;3.55;3.25;;;;;;;17.72;63.53;98381.78;4103795;28;20243;-62
2022/08/23 02:04:47;;;;;;;3.72;3.20;;;;;;;17.67;63.64;98381.84;4117035;28;20586;-62
2022/08/23 02:06:49;;;;;;;4.03;3.63;;;;;;;17.64;63.76;98382.44;4104589;28;20692;-62
2022/08/23 02:09:00;;;;;;;3.95;3.33;;;;;;;17.60;63.93;98375.84;4133565;28;20205;-63
2022/08/23 02:11:13;;;;;;;3.17;2.97;;;;;;;17.58;63.77;98375.34;4131947;28;20201;-61
2022/08/23 02:13:16;;;;;;;5.65;3.28;;;;;;;17.54;63.61;98377.03;4137185;28;20299;-63
2022/08/23 02:15:18;;;;;;;3.78;3.25;;;;;;;17.53;63.90;98380.94;4132618;28;20210;-61
2022/08/23 02:17:20;;;;;;;3.70;3.20;;;;;;;17.52;63.76;98382.88;4105388;28;20442;-62
2022/08/23 02:19:22;;;;;;;3.95;3.63;;;;;;;17.51;63.89;98388.72;4104359;28;20599;-62
2022/08/23 02:21:25;;;;;;;4.00;3.60;;;;;;;17.48;63.79;98383.75;4120255;28;20222;-61
2022/08/23 02:23:27;;;;;;;3.45;3.00;;;;;;;17.50;63.90;98395.34;4104990;28;20213;-60
2022/08/23 02:25:29;;;;;;;4.10;3.67;;;;;;;17.43;64.33;98378.28;4105809;28;20321;-61
2022/08/23 02:27:31;;;;;;;3.58;3.28;;;;;;;17.41;64.37;98386.06;4108347;28;20237;-62
2022/08/23 02:29:34;;;;;;;4.35;3.90;;;;;;;17.33;64.59;98390.28;4105605;28;20211;-61
2022/08/23 02:31:40;;;;;;;5.25;3.60;;;;;;;17.27;64.83;98398.97;4118326;28;20300;-62
2022/08/23 02:33:42;;;;;;;4.40;4.00;;;;;;;17.29;64.58;98391.19;4133262;28;20217;-61
2022/08/23 02:36:01;;;;;;;4.45;4.03;;;;;;;17.33;64.33;98397.78;4119232;28;20295;-62
2022/08/23 02:38:18;;;;;;;3.72;3.42;;;;;;;17.34;64.26;98388.34;4122939;28;20296;-62
2022/08/23 02:40:21;;;;;;;3.78;3.40;;;;;;;17.38;64.17;98393.03;4137278;28;20328;-60
2022/08/23 02:42:22;;;;;;;4.38;3.58;;;;;;;17.38;64.04;98394.97;4108306;28;20207;-60
2022/08/23 02:44:24;;;;;;;3.50;3.20;;;;;;;17.43;63.92;98397.66;4108342;28;20597;-63
2022/08/23 02:46:27;;;;;;;3.97;3.58;;;;;;;17.36;64.77;98394.41;4110630;28;20228;-62
2022/08/23 02:48:31;;;;;;;3.58;3.28;;;;;;;17.33;64.73;98403.31;4103849;28;20699;-62
2022/08/23 02:50:35;;;;;;;3.88;3.40;;;;;;;17.29;64.87;98396.72;4106667;28;20302;-62
2022/08/23 02:52:37;;;;;;;3.65;3.33;;;;;;;17.24;65.14;98396.75;4103241;28;20736;-61
2022/08/23 02:54:39;;;;;;;4.07;3.58;;;;;;;17.16;65.23;98408.47;4103951;28;20660;-62
2022/08/23 02:56:41;;;;;;;3.75;3.33;;;;;;;17.10;65.35;98406.91;4100413;28;20230;-60
2022/08/23 02:58:44;;;;;;;3.53;3.22;;;;;;;17.06;65.68;98406.66;4135156;28;20206;-63
2022/08/23 03:00:54;;;;;;;4.57;4.13;;;;;;;17.08;65.56;98411.91;4121558;28;20214;-62
2022/08/23 03:02:56;;;;;;;3.58;3.17;;;;;;;17.06;65.49;98400.31;4108498;28;20301;-63
2022/08/23 03:04:58;;;;;;;5.15;3.42;;;;;;;17.05;65.35;98416.09;4110114;28;20503;-62
2022/08/23 03:07:00;;;;;;;3.92;3.60;;;;;;;17.08;65.53;98417.44;4121145;28;20314;-60
2022/08/23 03:09:03;;;;;;;4.45;3.88;;;;;;;17.07;65.44;98410.25;4134557;28;20236;-62
2022/08/23 03:11:14;;;;;;;3.70;3.40;;;;;;;17.01;65.50;98411.44;4120144;28;20301;-63
2022/08/23 03:13:16;;;;;;;4.75;4.30;;;;;;;17.01;65.57;98416.97;4105624;28;20767;-62
2022/08/23 03:15:17;;;;;;;3.85;3.42;;;;;;;16.99;65.69;98405.38;4135098;28;20306;-61
2022/08/23 03:17:19;;;;;;;3.75;3.38;;;;;;;16.95;65.50;98412.59;4099838;28;20231;-62
2022/08/23 03:19:23;;;;;;;4.40;3.00;;;;;;;16.95;65.59;98407.06;4104963;28;20310;-61
2022/08/23 03:21:24;;;;;;;4.35;3.95;;;;;;;16.91;65.58;98411.56;4117248;28;20237;-60
2022/08/23 03:23:27;;;;;;;3.30;3.00;;;;;;;16.86;66.01;98403.31;4103395;28;20253;-62
2022/08/23 03:25:29;;;;;;;4.43;3.70;;;;;;;16.85;66.19;98411.91;4106699;28;20334;-61
2022/08/23 03:27:31;;;;;;;4.18;3.88;;;;;;;16.85;66.13;98406.38;4089686;28;20666;-60
2022/08/23 03:29:38;;;;;;;6.80;3.78;;;;;;;16.84;66.04;98411.06;4115970;28;20241;-60
2022/08/23 03:31:40;;;;;;;3.95;3.55;;;;;;;16.81;66.30;98411.66;4104194;28;20611;-64
2022/08/23 03:33:42;;;;;;;3.70;3.35;;;;;;;16.77;66.67;98416.13;4119004;28;20206;-61
2022/08/23 03:35:44;;;;;;;4.28;3.92;;;;;;;16.75;66.59;98418.34;4105818;28;20568;-62
2022/08/23 03:37:46;;;;;;;5.15;3.78;;;;;;;16.65;66.62;98421.25;4101037;28;20570;-60
2022/08/23 03:39:48;;;;;;;3.45;3.25;;;;;;;16.63;66.65;98415.16;4116897;28;20254;-61
2022/08/23 03:41:50;;;;;;;3.70;3.35;;;;;;;16.65;66.58;98418.47;4103860;28;20207;-61
2022/08/23 03:43:52;;;;;;;3.97;3.67;;;;;;;16.65;66.40;98412.09;4122718;28;20210;-62
2022/08/23 03:45:53;;;;;;;4.30;3.90;;;;;;;16.61;66.42;98422.91;4120952;28;20629;-62
2022/08/23 03:47:55;;;;;;;4.50;4.18;;;;;;;16.56;66.49;98425.72;4104311;28;20223;-63
2022/08/23 03:49:57;;;;;;;5.07;4.68;;;;;;;16.52;66.55;98427.44;4101946;28;20206;-62
2022/08/23 03:51:59;;;;;;;4.25;3.85;;;;;;;16.47;66.76;98427.47;4101283;28;20681;-61
2022/08/23 03:54:01;;;;;;;5.03;3.58;;;;;;;16.42;66.83;98424.75;4104197;28;20199;-60
2022/08/23 03:56:02;;;;;;;3.45;3.15;;;;;;;16.41;66.76;98434.16;4101593;28;20238;-62
2022/08/23 03:58:04;;;;;;;4.28;3.88;;;;;;;16.36;66.88;98428.63;4100389;28;20277;-62
2022/08/23 04:00:09;;;;;;;4.28;3.88;;;;;;;16.31;67.16;98439.75;4099292;28;20825;-63
2022/08/23 04:02:12;;;;;;;4.97;4.47;;;;;;;16.26;67.40;98439.78;4102764;28;20287;-63
2022/08/23 04:04:14;;;;;;;4.25;3.58;;;;;;;16.23;67.28;98437.59;4102081;28;20228;-62
2022/08/23 04:06:17;;;;;;;5.45;3.40;;;;;;;16.24;67.45;98446.69;4131583;28;20209;-65
2022/08/23 04:08:19;;;;;;;3.83;3.45;;;;;;;16.26;67.17;98442.53;4132398;28;20246;-61
2022/08/23 04:10:33;;;;;;;4.53;4.13;;;;;;;16.27;67.25;98444.19;4106773;28;20221;-61
2022/08/23 04:12:35;;;;;;;4.30;3.95;;;;;;;16.27;67.27;98449.72;4103880;28;20794;-62
2022/08/23 04:14:37;;;;;;;5.00;4.38;;;;;;;16.22;67.46;98446.97;4118692;28;20238;-62
2022/08/23 04:16:40;;;;;;;3.03;2.83;;;;;;;16.18;67.22;98454.22;4122182;28;20234;-61
2022/08/23 04:18:42;;;;;;;4.00;3.63;;;;;;;16.20;67.26;98453.91;4103602;28;20222;-61
2022/08/23 04:20:44;;;;;;;4.47;4.18;;;;;;;16.21;67.22;98452.78;4102930;28;20269;-64
2022/08/23 04:22:51;;;;;;;3.92;3.55;;;;;;;16.24;67.08;98455.78;4103973;28;20246;-62
2022/08/23 04:24:54;;;;;;;4.35;4.00;;;;;;;16.26;67.20;98463.78;4101784;28;20222;-62
2022/08/23 04:26:56;;;;;;;4.47;3.92;;;;;;;16.28;67.21;98456.88;4101125;28;20222;-62
2022/08/23 04:28:58;;;;;;;4.50;3.97;;;;;;;16.24;67.34;98461.31;4129298;28;20210;-64
2022/08/23 04:31:00;;;;;;;4.18;3.83;;;;;;;16.24;67.43;98466.84;4117982;28;20202;-62
2022/08/23 04:33:04;;;;;;;3.75;3.50;;;;;;;16.23;67.52;98473.47;4102201;28;20259;-63
2022/08/23 04:35:12;;;;;;;4.60;4.20;;;;;;;16.22;67.63;98474.59;4104239;28;20215;-64
2022/08/23 04:37:14;;;;;;;5.28;4.45;;;;;;;16.19;67.67;98475.19;4100283;28;20245;-61
2022/08/23 04:39:16;;;;;;;4.50;3.97;;;;;;;16.19;67.61;98480.72;4104346;28;20214;-62
2022/08/23 04:43:39;;;;;;;3.80;3.47;;;;;;;16.17;67.67;98479.34;4106169;28;20210;-62
2022/08/23 04:45:41;;;;;;;11.27;4.13;;;;;;;16.18;67.70;98483.75;4130179;28;20264;-64
2022/08/23 04:47:43;;;;;;;3.60;3.40;;;;;;;16.17;67.58;98484.88;4128115;28;20229;-64
2022/08/23 04:49:45;;;;;;;4.55;3.72;;;;;;;16.15;67.58;98485.13;4102718;28;20688;-62
2022/08/23 04:51:47;;;;;;;4.57;4.28;;;;;;;16.12;67.59;98485.72;4105695;28;20206;-61
2022/08/23 04:53:54;;;;;;;6.47;4.15;;;;;;;16.09;67.42;98491.81;4132848;28;20202;-62
2022/08/23 04:55:56;;;;;;;4.68;4.38;;;;;;;16.09;67.76;98491.81;4117995;28;20660;-62
2022/08/23 04:57:58;;;;;;;5.05;3.85;;;;;;;16.07;67.64;98496.78;4103671;28;20275;-61
2022/08/23 05:00:00;;;;;;;4.30;4.00;;;;;;;16.06;67.78;98497.91;4128346;28;20217;-62
2022/08/23 05:02:02;;;;;;;3.90;3.60;;;;;;;16.02;67.94;98502.34;4101093;28;20246;-61
2022/08/23 05:04:04;;;;;;;5.53;3.97;;;;;;;16.01;68.25;98499.84;4119436;28;20218;-61
2022/08/23 05:06:06;;;;;;;5.00;4.05;;;;;;;16.00;68.25;98499.03;4122417;28;20260;-62
2022/08/23 05:08:08;;;;;;;5.05;4.60;;;;;;;15.98;68.54;98514.25;4117770;28;20246;-61
2022/08/23 05:10:12;;;;;;;7.13;4.32;;;;;;;15.94;68.59;98511.22;4134812;28;20202;-63
2022/08/23 05:12:13;;;;;;;4.03;3.72;;;;;;;15.94;68.63;98515.91;4133814;28;20259;-62
2022/08/23 05:14:15;;;;;;;4.65;4.18;;;;;;;15.95;68.56;98518.38;4126402;28;20735;-62
2022/08/23 05:16:17;;;;;;;5.10;4.30;;;;;;;16.02;68.46;98518.91;4125424;28;20731;-61
2022/08/23 05:18:19;;;;;;;4.05;3.75;;;;;;;16.03;68.59;98515.03;4121030;28;20225;-61
2022/08/23 05:20:21;;;;;;;4.15;3.75;;;;;;;16.05;68.60;98523.88;4122639;28;20805;-60
2022/08/23 05:22:23;;;;;;;5.30;4.40;;;;;;;16.05;68.77;98518.34;4118591;28;20590;-63
2022/08/23 05:24:27;;;;;;;4.20;3.78;;;;;;;16.07;68.72;98527.16;4104618;28;20666;-62
2022/08/23 05:26:29;;;;;;;5.35;4.72;;;;;;;16.06;68.72;98531.03;4103810;28;20238;-64
2022/08/23 05:28:33;;;;;;;5.68;4.07;;;;;;;16.09;69.17;98535.97;4115494;28;20249;-64
2022/08/23 05:30:35;;;;;;;3.65;3.42;;;;;;;16.10;69.18;98532.09;4129492;28;20217;-63
2022/08/23 05:32:37;;;;;;;6.65;3.92;;;;;;;16.17;69.22;98538.13;4096989;28;20933;-63
2022/08/23 05:34:39;;;;;;;13.90;4.57;;;;;;;16.28;69.36;98550.78;4115812;28;20280;-62
2022/08/23 05:36:41;;;;;;;16.33;4.88;;;;;;;16.32;69.40;98545.50;4144455;28;20782;-64
2022/08/23 05:38:55;;;;;;;5.32;4.75;;;;;;;16.40;69.15;98543.00;4122806;28;20210;-62
2022/08/23 05:40:58;;;;;;;7.60;4.50;;;;;;;16.46;69.07;98544.63;4106231;28;20237;-62
2022/08/23 05:43:00;;;;;;;7.25;3.95;;;;;;;16.64;68.21;98549.44;4114222;28;20293;-62
2022/08/23 05:45:02;;;;;;;6.85;4.85;;;;;;;16.83;68.94;98542.09;4120199;28;20264;-64
2022/08/23 05:47:08;;;;;;;5.03;4.40;;;;;;;17.00;68.16;98548.84;4119236;28;20237;-61
2022/08/23 05:49:12;;;;;;;4.93;4.43;;;;;;;17.11;67.62;98549.59;4119494;28;20304;-63
2022/08/23 05:51:27;;;;;;;5.65;5.15;;;;;;;17.19;67.50;98546.19;4123319;28;20695;-62
2022/08/23 05:53:28;;;;;;;5.68;4.25;;;;;;;17.29;67.65;98551.63;4120532;28;20244;-63
2022/08/23 05:55:30;;;;;;;6.72;4.95;;;;;;;17.23;66.50;98547.25;4116949;28;20781;-63
2022/08/23 05:57:37;;;;;;;6.30;4.68;;;;;;;17.38;66.34;98549.91;4122561;28;20241;-61
2022/08/23 05:59:40;;;;;;;6.88;5.65;;;;;;;17.57;65.99;98551.63;4119844;28;20791;-62
2022/08/23 06:01:42;;;;;;;7.78;5.05;;;;;;;17.82;66.33;98556.03;4106713;28;20198;-62
2022/08/23 06:03:44;;;;;;;5.03;4.10;;;;;;;18.10;66.11;98552.31;4119908;28;20210;-61
2022/08/23 06:05:46;;;;;;;5.70;4.32;;;;;;;18.25;65.79;98557.69;4115927;28;20684;-61
2022/08/23 06:07:48;;;;;;;9.05;4.85;;;;;;;18.39;65.27;98572.47;4107923;28;20277;-62
2022/08/23 06:09:50;;;;;;;6.88;4.18;;;;;;;18.42;64.24;98572.69;4115772;28;20202;-61
2022/08/23 06:11:52;;;;;;;8.82;5.32;;;;;;;18.38;63.83;98568.06;4120537;28;20239;-62
2022/08/23 06:13:59;;;;;;;5.03;4.30;;;;;;;18.23;63.74;98576.53;4120626;28;20285;-62
2022/08/23 06:16:04;;;;;;;6.05;4.72;;;;;;;18.21;64.15;98570.47;4119960;28;20198;-61
2022/08/23 06:18:15;;;;;;;5.80;5.20;;;;;;;18.33;64.06;98568.13;4119822;28;20237;-62
2022/08/23 06:20:17;;;;;;;9.98;4.40;;;;;;;18.38;63.73;98576.38;4128590;28;20209;-63
2022/08/23 06:22:20;;;;;;;11.48;4.78;;;;;;;18.27;63.69;98580.38;4120940;28;20210;-65
2022/08/23 06:24:22;;;;;;;7.75;4.30;;;;;;;18.50;64.15;98588.66;4116281;28;20209;-61
2022/08/23 06:26:30;;;;;;;5.60;4.05;;;;;;;18.84;63.87;98585.66;4115543;28;20281;-61
2022/08/23 06:28:31;;;;;;;6.75;4.60;;;;;;;19.17;63.36;98582.56;4133813;28;20752;-62
2022/08/23 06:30:33;;;;;;;13.70;4.30;;;;;;;19.47;62.26;98584.03;4123388;28;20237;-59
2022/08/23 06:32:40;;;;;;;6.68;4.03;;;;;;;19.61;60.75;98584.88;4124343;28;20229;-65
2022/08/23 06:34:42;;;;;;;6.50;5.90;;;;;;;19.52;60.78;98575.59;4111280;28;20210;-62
2022/08/23 06:36:45;;;;;;;5.47;4.97;;;;;;;19.79;61.48;98582.00;4122386;28;20282;-61
2022/08/23 06:38:49;;;;;;;8.07;4.13;;;;;;;20.00;60.84;98582.41;4121506;28;20692;-63
2022/08/23 06:40:51;;;;;;;10.98;4.57;;;;;;;20.23;59.04;98579.44;4123817;28;20241;-62
2022/08/23 06:42:53;;;;;;;7.07;4.35;;;;;;;20.39;58.70;98588.28;4120658;28;20205;-63
2022/08/23 06:44:55;;;;;;;5.10;4.65;;;;;;;20.17;58.87;98577.91;4121041;28;20441;-63
2022/08/23 06:46:57;;;;;;;4.82;4.03;;;;;;;19.60;59.61;98588.78;4126195;28;20299;-64
2022/08/23 06:49:00;;;;;;;9.82;4.30;;;;;;;19.67;60.04;98586.41;4127221;28;20206;-65
2022/08/23 06:51:02;;;;;;;4.85;4.43;;;;;;;19.49;60.50;98581.75;4106896;28;20215;-64
2022/08/23 06:53:06;;;;;;;6.22;3.80;;;;;;;19.63;60.93;98583.44;4114876;28;20207;-63
2022/08/23 06:55:10;;;;;;;4.70;4.25;;;;;;;20.58;59.15;98578.66;4120473;28;21644;-62
2022/08/23 06:57:14;;;;;;;4.60;4.07;;;;;;;20.83;58.15;98585.56;4119425;28;20235;-61
2022/08/23 06:59:17;;;;;;;4.63;3.83;;;;;;;21.09;57.83;98589.41;4112970;28;20206;-66
2022/08/23 07:01:52;;;;;;;6.30;5.70;;;;;;;20.90;57.21;98592.38;4133060;28;20209;-63
2022/08/23 07:03:55;;;;;;;5.22;4.72;;;;;;;21.25;56.45;98587.91;4098509;28;20639;-62
2022/08/23 07:05:58;;;;;;;5.85;3.30;;;;;;;21.53;56.27;98586.63;4118318;28;20262;-62
2022/08/23 07:08:03;;;;;;;6.90;4.18;;;;;;;21.65;55.64;98592.41;4117164;28;21063;-61
2022/08/23 07:10:06;;;;;;;4.90;3.20;;;;;;;22.13;55.13;98582.16;4131574;28;20279;-64
2022/08/23 07:12:09;;;;;;;3.67;3.38;;;;;;;22.38;54.17;98587.00;4105991;28;20276;-63
2022/08/23 07:14:13;;;;;;;3.35;3.08;;;;;;;22.37;54.26;98588.16;4122620;28;20653;-62
2022/08/23 07:16:17;;;;;;;6.25;3.85;;;;;;;22.53;54.32;98586.56;4120040;28;20212;-61
2022/08/23 07:18:18;;;;;;;5.85;3.28;;;;;;;22.75;53.85;98589.19;4121970;28;20455;-62
2022/08/23 07:20:20;;;;;;;3.38;3.08;;;;;;;23.08;52.81;98594.00;4121680;28;20656;-61
2022/08/23 07:22:23;;;;;;;4.40;4.00;;;;;;;22.97;51.95;98595.44;4120409;28;20754;-61
2022/08/23 07:24:26;;;;;;;5.82;3.63;;;;;;;22.66;52.68;98603.16;4104842;28;21587;-63
2022/08/23 07:26:34;;;;;;;4.22;3.45;;;;;;;22.95;53.06;98594.97;4136029;28;20326;-64
2022/08/23 07:28:37;;;;;;;4.07;3.38;;;;;;;23.11;51.99;98604.47;4117003;28;20256;-61
2022/08/23 07:30:39;;;;;;;6.22;3.70;;;;;;;23.35;52.15;98609.59;4116354;28;20264;-61
2022/08/23 07:32:45;;;;;;;4.93;3.85;;;;;;;23.19;51.97;98616.84;4121101;28;20285;-62
2022/08/23 07:34:47;;;;;;;4.40;3.17;;;;;;;23.60;51.42;98612.34;4116458;28;20264;-62
2022/08/23 07:36:50;;;;;;;3.63;3.33;;;;;;;23.73;51.28;98605.75;4114678;28;20326;-63
2022/08/23 07:38:52;;;;;;;5.68;3.17;;;;;;;24.10;50.65;98603.00;4115776;28;20789;-61
2022/08/23 07:40:54;;;;;;;4.18;3.35;;;;;;;24.33;49.72;98604.38;4118351;28;20201;-64
2022/08/23 07:42:56;;;;;;;5.55;3.50;;;;;;;24.18;50.03;98602.16;4104229;28;20285;-64
2022/08/23 07:44:58;;;;;;;11.60;3.70;;;;;;;24.32;49.07;98607.53;4131942;28;20212;-66
2022/08/23 07:46:59;;;;;;;6.00;3.38;;;;;;;23.98;49.71;98598.47;4132573;28;20233;-60
2022/08/23 07:49:03;;;;;;;6.30;2.90;;;;;;;24.40;49.33;98599.06;4117958;28;20597;-64
2022/08/23 07:51:07;;;;;;;10.13;3.90;;;;;;;24.15;49.11;98597.25;4118184;28;22253;-63
2022/08/23 07:53:09;;;;;;;11.85;3.85;;;;;;;24.23;49.89;98601.97;4149829;28;20255;-64
2022/08/23 07:55:11;;;;;;;3.70;2.83;;;;;;;24.61;49.22;98599.94;4116680;28;20206;-62
2022/08/23 07:57:12;;;;;;;6.03;2.97;;;;;;;24.93;48.78;98607.63;4119760;28;20295;-63
2022/08/23 07:59:14;;;;;;;10.55;3.38;;;;;;;25.15;48.33;98615.72;4125460;28;20228;-62
2022/08/23 08:01:20;;;;;;;3.05;2.75;;;;;;;25.41;47.75;98619.13;4118911;28;20561;-63
2022/08/23 08:03:22;;;;;;;5.85;3.00;;;;;;;25.21;46.27;98614.34;4124588;28;20209;-62
2022/08/23 08:05:24;;;;;;;6.18;3.25;;;;;;;25.29;47.47;98621.88;4125863;28;20213;-64
2022/08/23 08:07:26;;;;;;;3.33;3.03;;;;;;;25.59;48.08;98625.41;4121142;28;20233;-60
2022/08/23 08:09:31;;;;;;;5.47;2.60;;;;;;;25.92;46.44;98618.63;4120832;28;20212;-62
2022/08/23 08:11:33;;;;;;;3.70;2.67;;;;;;;26.15;45.82;98622.66;4121201;28;20202;-61
2022/08/23 08:13:38;;;;;;;4.28;3.03;;;;;;;26.01;45.84;98622.16;4120850;28;20369;-61
2022/08/23 08:15:41;;;;;;;4.35;3.08;;;;;;;26.28;45.33;98629.06;4120787;28;20205;-59
2022/08/23 08:17:46;;;;;;;5.13;3.00;;;;;;;26.42;45.38;98627.56;4126110;28;20243;-62
2022/08/23 08:19:48;;;;;;;3.08;2.85;;;;;;;26.45;45.76;98624.06;4121846;28;20555;-60
2022/08/23 08:21:50;;;;;;;2.90;2.42;;;;;;;26.78;44.91;98624.78;4109955;28;20206;-63
2022/08/23 08:23:52;;;;;;;3.40;2.88;;;;;;;26.43;45.43;98631.19;4118258;28;20213;-59
2022/08/23 08:26:03;;;;;;;4.03;2.53;;;;;;;26.74;44.90;98623.84;4126589;28;20201;-61
2022/08/23 08:28:06;;;;;;;4.85;3.55;;;;;;;26.06;44.72;98630.31;4117441;28;20304;-61
2022/08/23 08:30:13;;;;;;;7.90;2.90;;;;;;;25.72;45.49;98630.69;4119519;28;20213;-60
2022/08/23 08:32:15;;;;;;;3.83;3.22;;;;;;;25.76;45.23;98634.44;4124858;28;20552;-60
2022/08/23 08:34:17;;;;;;;5.53;2.95;;;;;;;26.04;46.08;98635.47;4121037;28;20645;-61
2022/08/23 08:36:46;;;;;;;8.77;2.95;;;;;;;26.70;45.58;98633.31;4122223;28;20700;-58
2022/08/23 08:38:48;;;;;;;5.38;2.83;;;;;;;26.69;45.18;98637.28;4120917;28;20225;-62
2022/08/23 08:41:17;;;;;;;4.50;3.10;;;;;;;26.98;44.79;98623.00;4121485;28;20217;-62
2022/08/23 08:43:40;;;;;;;4.55;2.72;;;;;;;27.40;44.38;98624.31;4137662;28;20202;-61
2022/08/23 08:46:00;;;;;;;4.38;2.80;;;;;;;27.68;44.37;98625.94;4121346;28;20209;-60
2022/08/23 08:48:08;;;;;;;3.38;2.72;;;;;;;27.60;43.40;98626.09;4120580;28;20246;-60
2022/08/23 08:50:22;;;;;;;7.75;2.60;;;;;;;27.65;44.07;98621.03;4136038;28;20208;-62
2022/08/23 08:52:27;;;;;;;9.15;2.70;;;;;;;27.72;43.97;98626.84;4124547;28;20205;-62
2022/08/23 08:54:32;;;;;;;5.68;2.25;;;;;;;27.92;44.19;98639.91;4117061;28;20221;-60
2022/08/23 08:56:37;;;;;;;3.75;2.40;;;;;;;28.22;43.85;98638.31;4118762;28;20218;-62
2022/08/23 08:58:58;;;;;;;4.03;3.22;;;;;;;28.77;42.41;98631.66;4147272;28;20232;-61
2022/08/23 09:00:59;;;;;;;4.15;2.83;;;;;;;28.97;42.61;98628.56;4150206;28;20292;-60
2022/08/23 09:03:05;;;;;;;3.53;2.38;;;;;;;28.94;42.16;98629.31;4116446;28;20209;-60
2022/08/23 09:05:13;;;;;;;6.15;2.20;;;;;;;28.92;42.31;98620.38;4117867;28;20733;-64
2022/08/23 09:07:31;;;;;;;4.78;2.50;;;;;;;28.38;42.17;98627.09;4131397;28;20255;-63
2022/08/23 09:09:55;;;;;;;2.72;2.25;;;;;;;28.13;42.44;98631.22;4117182;28;20194;-60
2022/08/23 09:12:04;;;;;;;3.15;2.28;;;;;;;28.14;42.34;98621.59;4133314;28;20201;-62
2022/08/23 09:14:37;;;;;;;5.70;2.65;;;;;;;28.35;42.96;98622.97;4120749;28;20643;-59
2022/08/23 09:16:50;;;;;;;4.82;2.50;;;;;;;28.78;42.03;98625.66;4120030;28;20233;-61
2022/08/23 09:18:53;;;;;;;2.15;1.75;;;;;;;28.99;41.30;98620.56;4118642;28;20371;-60
2022/08/23 09:20:56;;;;;;;6.78;3.03;;;;;;;29.37;40.90;98620.63;4123873;28;20256;-59
2022/08/23 09:23:11;;;;;;;3.53;2.08;;;;;;;28.03;41.61;98614.84;4116963;28;20261;-62
2022/08/23 09:25:15;;;;;;;4.05;2.67;;;;;;;28.03;41.53;98612.88;4120664;28;20611;-61
2022/08/23 09:27:18;;;;;;;6.65;2.38;;;;;;;28.03;41.68;98612.88;4100618;28;20993;-61
2022/08/23 09:29:26;;;;;;;6.57;2.17;;;;;;;27.79;42.02;98610.19;4117497;28;20214;-63
2022/08/23 09:31:47;;;;;;;3.28;1.90;;;;;;;27.81;42.13;98610.66;4117864;28;20209;-61
2022/08/23 09:33:49;;;;;;;5.82;1.88;;;;;;;28.46;42.74;98606.38;4112659;28;20212;-61
2022/08/23 09:36:24;;;;;;;5.13;2.30;;;;;;;28.94;41.14;98606.78;4115048;28;20218;-66
2022/08/23 09:38:28;;;;;;;3.75;2.10;;;;;;;29.85;40.43;98611.56;4104806;28;20233;-62
2022/08/23 09:40:36;;;;;;;2.50;1.88;;;;;;;29.56;39.05;98605.72;4122159;28;20209;-59
2022/08/23 09:42:42;;;;;;;2.08;1.63;;;;;;;29.77;39.16;98606.97;4134128;28;20309;-61
2022/08/23 09:44:44;;;;;;;5.90;1.98;;;;;;;30.24;38.45;98604.66;4115789;28;20210;-60
2022/08/23 09:46:50;;;;;;;3.13;1.88;;;;;;;30.46;38.15;98611.50;4107509;28;20858;-60
2022/08/23 09:48:54;;;;;;;2.05;1.55;;;;;;;30.87;37.86;98611.41;4108325;28;20671;-61
2022/08/23 09:50:57;;;;;;;3.13;1.83;;;;;;;30.88;36.61;98613.03;4136404;28;20211;-64
2022/08/23 09:53:02;;;;;;;2.47;1.58;;;;;;;31.10;36.41;98608.50;4103180;28;20206;-61
2022/08/23 09:55:09;;;;;;;5.80;1.90;;;;;;;31.25;35.06;98602.69;4121857;28;20197;-60
2022/08/23 09:57:12;;;;;;;2.22;1.65;;;;;;;31.29;35.06;98605.56;4123618;28;20225;-62